createdAt,value
2017-11-13T00:01:30.804Z,7.57
2017-11-13T00:03:58.352Z,7.93
2017-11-13T00:06:25.924Z,7.37
2017-11-13T00:08:54.008Z,8.10
2017-11-13T00:11:21.709Z,8.33
2017-11-13T00:13:49.294Z,8.80
2017-11-13T00:16:16.906Z,8.60
2017-11-13T00:18:45.203Z,7.73
2017-11-13T00:21:12.784Z,8.30
2017-11-13T00:23:40.373Z,8.90
2017-11-13T00:26:07.923Z,8.97
2017-11-13T00:28:35.559Z,9.10
2017-11-13T00:31:03.133Z,9.43
2017-11-13T00:33:30.705Z,9.17
2017-11-13T00:35:58.289Z,8.63
2017-11-13T00:38:25.871Z,8.30
2017-11-13T00:40:53.429Z,9.67
2017-11-13T00:43:20.977Z,9.23
2017-11-13T00:45:48.513Z,9.00
2017-11-13T00:48:16.046Z,10.93
2017-11-13T00:50:44.375Z,9.47
2017-11-13T00:53:12.706Z,8.90
2017-11-13T00:55:41.228Z,10.33
2017-11-13T00:58:08.795Z,9.90
2017-11-13T01:00:36.353Z,9.70
2017-11-13T01:03:03.913Z,10.30
2017-11-13T01:05:31.503Z,9.10
2017-11-13T01:07:59.999Z,10.20
2017-11-13T01:10:27.930Z,9.30
2017-11-13T01:12:55.510Z,10.03
2017-11-13T01:15:23.059Z,9.70
2017-11-13T01:17:50.626Z,10.67
2017-11-13T01:20:18.987Z,9.03
2017-11-13T01:22:46.520Z,10.20
2017-11-13T01:25:14.082Z,10.80
2017-11-13T01:27:41.637Z,9.83
2017-11-13T01:30:09.167Z,10.10
2017-11-13T01:32:37.979Z,9.60
2017-11-13T01:35:05.536Z,9.97
2017-11-13T01:37:33.111Z,10.70
2017-11-13T01:40:00.778Z,9.50
2017-11-13T01:42:28.300Z,9.63
2017-11-13T01:44:56.623Z,10.60
2017-11-13T01:47:24.212Z,10.07
2017-11-13T01:49:51.760Z,11.70
2017-11-13T01:52:19.396Z,9.00
2017-11-13T01:54:46.952Z,9.13
2017-11-13T01:57:14.505Z,9.87
2017-11-13T01:59:42.049Z,9.60
2017-11-13T02:02:09.620Z,10.47
2017-11-13T02:04:37.170Z,10.93
2017-11-13T02:07:07.641Z,10.40
2017-11-13T02:09:35.236Z,10.87
2017-11-13T02:12:02.786Z,12.10
2017-11-13T02:14:30.328Z,10.17
2017-11-13T02:16:57.898Z,9.67
2017-11-13T02:19:25.442Z,10.67
2017-11-13T02:21:53.009Z,11.43
2017-11-13T02:24:20.561Z,9.63
2017-11-13T02:26:48.125Z,9.77
2017-11-13T02:29:15.661Z,11.37
2017-11-13T02:31:43.227Z,10.30
2017-11-13T02:34:10.767Z,10.93
2017-11-13T02:36:38.305Z,10.60
2017-11-13T02:39:05.862Z,11.23
2017-11-13T02:41:33.387Z,10.53
2017-11-13T02:44:00.945Z,10.60
2017-11-13T02:46:28.573Z,10.40
2017-11-13T02:48:56.134Z,11.47
2017-11-13T02:51:23.708Z,10.77
2017-11-13T02:53:51.291Z,12.20
2017-11-13T02:56:18.838Z,12.20
2017-11-13T02:58:46.410Z,10.53
2017-11-13T03:01:13.955Z,10.93
2017-11-13T03:03:41.564Z,11.70
2017-11-13T03:06:09.922Z,10.97
2017-11-13T03:08:37.459Z,11.00
2017-11-13T03:11:05.064Z,11.60
2017-11-13T03:13:32.624Z,12.60
2017-11-13T03:16:00.160Z,11.67
2017-11-13T03:18:27.723Z,11.00
2017-11-13T03:20:55.253Z,10.60
2017-11-13T03:23:22.814Z,11.73
2017-11-13T03:25:50.372Z,12.60
2017-11-13T03:28:17.893Z,11.40
2017-11-13T03:30:45.460Z,10.87
2017-11-13T03:33:13.042Z,11.87
2017-11-13T03:35:40.592Z,10.70
2017-11-13T03:38:08.146Z,9.80
2017-11-13T03:40:35.713Z,11.13
2017-11-13T03:43:03.255Z,10.07
2017-11-13T03:45:30.791Z,11.60
2017-11-13T03:47:58.305Z,9.73
2017-11-13T03:50:25.885Z,10.87
2017-11-13T03:52:53.428Z,11.60
2017-11-13T03:55:20.979Z,9.97
2017-11-13T03:57:48.547Z,8.50
2017-11-13T04:00:16.073Z,9.60
2017-11-13T04:02:43.637Z,9.00
2017-11-13T04:05:11.988Z,10.20
2017-11-13T04:07:39.592Z,10.43
2017-11-13T04:10:07.136Z,10.63
2017-11-13T04:12:34.699Z,11.60
2017-11-13T04:15:02.244Z,10.33
2017-11-13T04:17:29.798Z,9.83
2017-11-13T04:19:57.381Z,11.97
2017-11-13T04:22:25.679Z,10.00
2017-11-13T04:24:53.229Z,10.37
2017-11-13T04:27:20.770Z,10.37
2017-11-13T04:29:49.070Z,8.63
2017-11-13T04:32:16.630Z,10.33
2017-11-13T04:34:44.159Z,10.70
2017-11-13T04:37:11.706Z,9.70
2017-11-13T04:39:39.262Z,10.30
2017-11-13T04:42:06.825Z,9.73
2017-11-13T04:44:35.161Z,10.60
2017-11-13T04:47:02.698Z,9.50
2017-11-13T04:49:31.045Z,10.80
2017-11-13T04:51:58.659Z,10.50
2017-11-13T04:54:26.194Z,10.40
2017-11-13T04:56:54.521Z,10.83
2017-11-13T04:59:22.033Z,9.77
2017-11-13T05:01:50.325Z,10.23
2017-11-13T05:04:17.896Z,10.20
2017-11-13T05:06:45.440Z,9.00
2017-11-13T05:09:13.751Z,11.20
2017-11-13T05:11:41.376Z,9.07
2017-11-13T05:14:08.920Z,8.93
2017-11-13T05:16:36.487Z,10.03
2017-11-13T05:19:04.957Z,10.37
2017-11-13T05:21:32.865Z,10.27
2017-11-13T05:24:00.454Z,9.97
2017-11-13T05:26:29.207Z,10.73
2017-11-13T05:28:57.523Z,9.97
2017-11-13T05:31:25.050Z,9.07
2017-11-13T05:33:52.554Z,8.33
2017-11-13T05:36:20.862Z,9.10
2017-11-13T05:38:49.138Z,11.10
2017-11-13T05:41:16.647Z,9.00
2017-11-13T05:43:44.247Z,9.30
2017-11-13T05:46:11.765Z,8.40
2017-11-13T05:48:39.270Z,10.57
2017-11-13T05:51:06.822Z,9.20
2017-11-13T05:53:34.358Z,8.97
2017-11-13T05:56:02.642Z,8.37
2017-11-13T05:58:30.186Z,9.07
2017-11-13T06:00:57.731Z,8.10
2017-11-13T06:03:25.263Z,9.00
2017-11-13T06:05:53.577Z,7.50
2017-11-13T06:08:21.110Z,8.60
2017-11-13T06:10:48.684Z,8.17
2017-11-13T06:13:16.201Z,8.50
2017-11-13T06:15:43.729Z,8.20
2017-11-13T06:18:11.314Z,8.47
2017-11-13T06:20:38.830Z,6.80
2017-11-13T06:23:06.343Z,8.37
2017-11-13T06:25:33.885Z,8.27
2017-11-13T06:28:01.395Z,7.33
2017-11-13T06:30:28.921Z,9.30
2017-11-13T06:32:56.510Z,8.90
2017-11-13T06:35:24.025Z,7.80
2017-11-13T06:37:51.534Z,8.70
2017-11-13T06:40:19.095Z,8.27
2017-11-13T06:42:46.608Z,6.93
2017-11-13T06:45:14.126Z,8.13
2017-11-13T06:47:41.670Z,8.47
2017-11-13T06:50:09.172Z,8.50
2017-11-13T06:52:36.686Z,9.10
2017-11-13T06:55:04.229Z,8.43
2017-11-13T06:57:32.506Z,9.10
2017-11-13T07:00:00.790Z,9.10
2017-11-13T07:02:29.099Z,8.10
2017-11-13T07:04:56.606Z,9.00
2017-11-13T07:07:24.126Z,7.33
2017-11-13T07:09:51.657Z,7.43
2017-11-13T07:12:19.174Z,7.87
2017-11-13T07:14:46.697Z,8.10
2017-11-13T07:17:14.234Z,7.40
2017-11-13T07:19:41.750Z,7.70
2017-11-13T07:22:09.294Z,8.00
2017-11-13T07:24:36.801Z,8.93
2017-11-13T07:27:05.078Z,7.70
2017-11-13T07:29:33.377Z,7.10
2017-11-13T07:32:00.898Z,8.27
2017-11-13T07:34:28.457Z,7.07
2017-11-13T07:36:55.971Z,7.80
2017-11-13T07:39:23.501Z,6.90
2017-11-13T07:41:51.074Z,8.17
2017-11-13T07:44:18.608Z,8.30
2017-11-13T07:46:46.905Z,7.53
2017-11-13T07:49:14.446Z,8.90
2017-11-13T07:51:42.750Z,8.57
2017-11-13T07:54:10.270Z,6.47
2017-11-13T07:56:37.838Z,8.20
2017-11-13T07:59:05.359Z,8.27
2017-11-13T08:01:32.861Z,6.60
2017-11-13T08:04:01.226Z,6.77
2017-11-13T08:06:28.747Z,7.17
2017-11-13T08:08:56.258Z,6.73
2017-11-13T08:11:24.572Z,6.80
2017-11-13T08:13:52.081Z,7.13
2017-11-13T08:16:19.590Z,6.37
2017-11-13T08:18:48.154Z,7.17
2017-11-13T08:21:16.429Z,6.03
2017-11-13T08:23:44.693Z,7.50
2017-11-13T08:26:12.238Z,6.77
2017-11-13T08:28:39.747Z,5.17
2017-11-13T08:31:07.262Z,7.10
2017-11-13T08:33:34.994Z,7.90
2017-11-13T08:36:02.511Z,6.90
2017-11-13T08:38:30.817Z,6.67
2017-11-13T08:40:58.319Z,7.20
2017-11-13T08:43:25.827Z,6.10
2017-11-13T08:45:53.367Z,6.87
2017-11-13T08:48:20.878Z,6.80
2017-11-13T08:50:48.398Z,5.27
2017-11-13T08:53:15.959Z,7.20
2017-11-13T08:55:43.486Z,6.40
2017-11-13T08:58:11.762Z,6.00
2017-11-13T09:00:40.076Z,5.60
2017-11-13T09:03:07.610Z,6.23
2017-11-13T09:05:35.882Z,5.23
2017-11-13T09:08:03.395Z,6.00
2017-11-13T09:10:30.930Z,5.70
2017-11-13T09:12:58.471Z,5.37
2017-11-13T09:15:26.741Z,6.00
2017-11-13T09:17:54.250Z,5.63
2017-11-13T09:20:21.786Z,5.83
2017-11-13T09:22:49.285Z,5.67
2017-11-13T09:25:16.822Z,4.73
2017-11-13T09:27:44.329Z,5.27
2017-11-13T09:30:12.610Z,6.40
2017-11-13T09:32:40.170Z,5.50
2017-11-13T09:35:07.671Z,5.10
2017-11-13T09:37:35.177Z,5.03
2017-11-13T09:40:02.715Z,5.63
2017-11-13T09:42:30.226Z,5.53
2017-11-13T09:44:57.726Z,5.50
2017-11-13T09:47:25.270Z,4.30
2017-11-13T09:49:52.782Z,5.43
2017-11-13T09:52:20.290Z,4.17
2017-11-13T09:54:47.821Z,4.70
2017-11-13T09:57:15.331Z,4.67
2017-11-13T09:59:42.842Z,4.70
2017-11-13T10:02:10.375Z,4.70
2017-11-13T10:04:37.961Z,3.33
2017-11-13T10:07:06.237Z,5.10
2017-11-13T10:09:33.775Z,4.97
2017-11-13T10:12:01.277Z,3.87
2017-11-13T10:14:28.786Z,5.10
2017-11-13T10:16:56.334Z,4.80
2017-11-13T10:19:23.855Z,4.50
2017-11-13T10:21:51.394Z,4.77
2017-11-13T10:24:18.912Z,5.20
2017-11-13T10:26:46.417Z,4.13
2017-11-13T10:29:13.946Z,4.43
2017-11-13T10:31:41.451Z,4.90
2017-11-13T10:34:08.962Z,3.37
2017-11-13T10:36:36.485Z,3.40
2017-11-13T10:39:03.995Z,4.00
2017-11-13T10:41:32.270Z,5.23
2017-11-13T10:43:59.835Z,4.07
2017-11-13T10:46:27.339Z,4.60
2017-11-13T10:48:54.855Z,3.20
2017-11-13T10:51:23.156Z,3.80
2017-11-13T10:53:50.658Z,3.27
2017-11-13T10:56:18.203Z,3.50
2017-11-13T10:58:45.730Z,2.90
2017-11-13T11:01:13.230Z,3.07
2017-11-13T11:03:40.758Z,2.50
2017-11-13T11:06:08.294Z,2.70
2017-11-13T11:08:36.568Z,2.37
2017-11-13T11:11:04.884Z,2.37
2017-11-13T11:13:35.025Z,2.80
2017-11-13T11:16:14.419Z,1.83
2017-11-13T11:18:42.593Z,2.27
2017-11-13T11:21:15.870Z,2.07
2017-11-13T11:23:45.874Z,3.47
2017-11-13T11:26:13.853Z,2.13
2017-11-13T11:28:42.939Z,2.73
2017-11-13T11:31:10.451Z,3.00
2017-11-13T11:33:40.418Z,2.50
2017-11-13T11:36:11.633Z,2.70
2017-11-13T11:38:39.142Z,3.30
2017-11-13T11:41:07.271Z,3.40
2017-11-13T11:43:34.958Z,3.73
2017-11-13T11:46:04.265Z,4.40
2017-11-13T11:48:33.638Z,3.83
2017-11-13T11:51:01.170Z,3.00
2017-11-13T11:53:28.702Z,3.20
2017-11-13T11:56:02.527Z,3.00
2017-11-13T11:58:30.059Z,3.63
2017-11-13T12:00:57.578Z,2.60
2017-11-13T12:03:25.099Z,2.30
2017-11-13T12:05:53.391Z,2.13
2017-11-13T12:08:20.907Z,3.07
2017-11-13T12:10:48.463Z,2.77
2017-11-13T12:13:15.965Z,3.90
2017-11-13T12:15:43.580Z,2.63
2017-11-13T12:18:11.117Z,1.80
2017-11-13T12:20:38.637Z,2.57
2017-11-13T12:23:06.921Z,1.57
2017-11-13T12:25:34.499Z,2.43
2017-11-13T12:28:02.007Z,2.40
2017-11-13T12:30:29.526Z,2.23
2017-11-13T12:32:57.062Z,2.20
2017-11-13T12:35:24.570Z,2.60
2017-11-13T12:37:52.074Z,2.00
2017-11-13T12:40:19.606Z,2.40
2017-11-13T12:42:47.093Z,2.30
2017-11-13T12:45:14.618Z,2.07
2017-11-13T12:47:42.127Z,2.07
2017-11-13T12:50:09.642Z,1.90
2017-11-13T12:52:37.170Z,1.80
2017-11-13T12:55:04.680Z,1.83
2017-11-13T12:57:32.960Z,2.00
2017-11-13T13:00:00.496Z,1.50
2017-11-13T13:02:27.990Z,1.23
2017-11-13T13:04:55.550Z,1.77
2017-11-13T13:07:23.065Z,1.50
2017-11-13T13:09:50.573Z,2.30
2017-11-13T13:12:18.110Z,1.70
2017-11-13T13:14:45.617Z,2.10
2017-11-13T13:17:13.138Z,1.50
2017-11-13T13:19:40.669Z,1.80
2017-11-13T13:22:08.187Z,1.97
2017-11-13T13:24:35.726Z,2.50
2017-11-13T13:27:03.246Z,2.10
2017-11-13T13:29:30.742Z,1.20
2017-11-13T13:31:58.269Z,2.10
2017-11-13T13:34:25.769Z,1.20
2017-11-13T13:36:53.307Z,1.30
2017-11-13T13:39:21.618Z,1.30
2017-11-13T13:41:49.148Z,1.70
2017-11-13T13:44:16.671Z,1.40
2017-11-13T13:46:44.178Z,1.07
2017-11-13T13:49:11.694Z,1.07
2017-11-13T13:51:39.222Z,1.60
2017-11-13T13:54:06.717Z,1.20
2017-11-13T13:56:34.259Z,1.73
2017-11-13T13:59:01.856Z,2.13
2017-11-13T14:01:30.126Z,1.60
2017-11-13T14:03:58.394Z,1.57
2017-11-13T14:06:25.926Z,1.67
2017-11-13T14:08:53.429Z,1.83
2017-11-13T14:11:20.957Z,2.00
2017-11-13T14:13:48.457Z,1.60
2017-11-13T14:16:16.722Z,2.10
2017-11-13T14:18:45.017Z,2.13
2017-11-13T14:21:12.513Z,2.70
2017-11-13T14:23:40.008Z,1.90
2017-11-13T14:26:07.560Z,2.07
2017-11-13T14:28:35.078Z,2.30
2017-11-13T14:31:02.593Z,1.90
2017-11-13T14:33:30.905Z,2.57
2017-11-13T14:35:58.410Z,2.00
2017-11-13T14:38:25.913Z,2.30
2017-11-13T14:40:53.439Z,2.50
2017-11-13T14:43:20.946Z,2.30
2017-11-13T14:45:48.446Z,2.87
2017-11-13T14:48:15.980Z,2.40
2017-11-13T14:50:43.495Z,3.03
2017-11-13T14:53:10.998Z,2.07
2017-11-13T14:55:38.517Z,2.50
2017-11-13T14:58:06.770Z,3.00
2017-11-13T15:00:34.310Z,2.20
2017-11-13T15:03:01.802Z,3.47
2017-11-13T15:05:30.074Z,2.30
2017-11-13T15:07:57.613Z,2.40
2017-11-13T15:10:25.114Z,2.37
2017-11-13T15:12:52.621Z,3.03
2017-11-13T15:15:20.145Z,3.10
2017-11-13T15:17:47.657Z,2.67
2017-11-13T15:20:15.185Z,2.30
2017-11-13T15:22:42.678Z,3.10
2017-11-13T15:25:10.174Z,2.90
2017-11-13T15:27:37.825Z,3.27
2017-11-13T15:30:06.089Z,2.70
2017-11-13T15:32:34.362Z,3.00
2017-11-13T15:35:01.909Z,3.37
2017-11-13T15:37:29.476Z,3.00
2017-11-13T15:39:56.994Z,2.77
2017-11-13T15:42:24.561Z,2.77
2017-11-13T15:44:52.107Z,3.10
2017-11-13T15:47:19.650Z,2.67
2017-11-13T15:49:47.150Z,3.03
2017-11-13T15:52:14.668Z,2.90
2017-11-13T15:54:42.244Z,2.90
2017-11-13T15:57:09.790Z,3.07
2017-11-13T15:59:37.422Z,2.83
2017-11-13T16:02:05.715Z,3.23
2017-11-13T16:04:33.994Z,2.70
2017-11-13T16:07:02.301Z,3.07
2017-11-13T16:09:29.876Z,3.10
2017-11-13T16:11:58.196Z,2.83
2017-11-13T16:14:26.587Z,2.87
2017-11-13T16:16:54.861Z,3.00
2017-11-13T16:19:23.177Z,4.20
2017-11-13T16:21:50.839Z,3.70
2017-11-13T16:24:18.457Z,3.20
2017-11-13T16:26:46.813Z,3.80
2017-11-13T16:29:14.328Z,3.33
2017-11-13T16:31:41.868Z,2.70
2017-11-13T16:34:10.145Z,3.07
2017-11-13T16:36:37.725Z,3.67
2017-11-13T16:39:05.285Z,3.40
2017-11-13T16:41:32.840Z,3.40
2017-11-13T16:44:01.232Z,3.17
2017-11-13T16:46:28.736Z,2.80
2017-11-13T16:48:56.237Z,2.67
2017-11-13T16:51:23.768Z,3.40
2017-11-13T16:53:51.301Z,2.97
2017-11-13T16:56:18.799Z,2.60
2017-11-13T16:58:47.066Z,2.97
2017-11-13T17:01:14.597Z,3.27
2017-11-13T17:03:42.112Z,2.70
2017-11-13T17:06:09.691Z,3.60
2017-11-13T17:08:37.254Z,3.73
2017-11-13T17:11:04.775Z,2.93
2017-11-13T17:13:33.054Z,3.00
2017-11-13T17:16:00.608Z,4.53
2017-11-13T17:18:28.922Z,2.70
2017-11-13T17:20:57.197Z,4.20
2017-11-13T17:23:24.709Z,3.57
2017-11-13T17:25:52.258Z,3.60
2017-11-13T17:28:19.770Z,2.93
2017-11-13T17:30:47.278Z,3.77
2017-11-13T17:33:14.825Z,3.90
2017-11-13T17:35:42.361Z,4.37
2017-11-13T17:38:09.886Z,4.03
2017-11-13T17:40:38.211Z,3.90
2017-11-13T17:43:05.705Z,3.83
2017-11-13T17:45:33.206Z,4.50
2017-11-13T17:48:00.757Z,3.33
2017-11-13T17:50:28.279Z,3.80
2017-11-13T17:52:55.817Z,4.00
2017-11-13T17:55:23.326Z,3.70
2017-11-13T17:57:50.839Z,4.27
2017-11-13T18:00:18.389Z,2.90
2017-11-13T18:02:45.894Z,4.00
2017-11-13T18:05:13.398Z,3.47
2017-11-13T18:07:40.947Z,3.50
2017-11-13T18:10:08.455Z,3.30
2017-11-13T18:12:35.957Z,4.73
2017-11-13T18:15:03.508Z,3.67
2017-11-13T18:17:31.019Z,3.10
2017-11-13T18:19:58.559Z,2.90
2017-11-13T18:22:26.108Z,3.27
2017-11-13T18:24:53.645Z,3.20
2017-11-13T18:27:21.928Z,3.40
2017-11-13T18:29:49.457Z,3.83
2017-11-13T18:32:16.967Z,3.47
2017-11-13T18:34:44.479Z,4.10
2017-11-13T18:37:12.027Z,2.80
2017-11-13T18:39:39.533Z,3.53
2017-11-13T18:42:07.071Z,3.53
2017-11-13T18:44:34.577Z,3.63
2017-11-13T18:47:02.087Z,3.90
2017-11-13T18:49:30.386Z,3.50
2017-11-13T18:51:57.910Z,4.33
2017-11-13T18:54:25.422Z,3.50
2017-11-13T18:56:52.969Z,4.53
2017-11-13T18:59:20.502Z,4.47
2017-11-13T19:01:48.798Z,4.57
2017-11-13T19:04:16.349Z,4.40
2017-11-13T19:06:49.196Z,4.10
2017-11-13T19:09:16.754Z,4.03
2017-11-13T19:11:44.277Z,4.80
2017-11-13T19:14:11.809Z,3.93
2017-11-13T19:16:40.124Z,4.97
2017-11-13T19:19:07.688Z,5.60
2017-11-13T19:21:35.218Z,6.00
2017-11-13T19:24:02.797Z,6.50
2017-11-13T19:26:30.305Z,5.53
2017-11-13T19:28:57.863Z,6.45
2017-11-13T19:31:25.480Z,6.67
2017-11-13T19:33:53.051Z,6.80
2017-11-13T19:36:20.617Z,5.80
2017-11-13T19:38:48.194Z,5.90
2017-11-13T19:41:16.825Z,6.10
2017-11-13T19:43:44.470Z,9.67
2017-11-13T19:46:11.990Z,7.33
2017-11-13T19:48:39.577Z,6.27
2017-11-13T19:51:08.081Z,6.63
2017-11-13T19:53:35.582Z,6.00
2017-11-13T19:56:03.191Z,6.67
2017-11-13T19:58:30.776Z,6.87
2017-11-13T20:00:58.320Z,7.20
2017-11-13T20:03:25.919Z,8.00
2017-11-13T20:05:53.451Z,6.47
2017-11-13T20:08:21.038Z,7.23
2017-11-13T20:10:49.524Z,5.20
2017-11-13T20:13:17.045Z,4.63
2017-11-13T20:15:44.608Z,5.67
2017-11-13T20:18:12.140Z,4.67
2017-11-13T20:20:39.904Z,4.87
2017-11-13T20:23:08.333Z,5.30
2017-11-13T20:25:35.865Z,4.83
2017-11-13T20:28:03.396Z,6.27
2017-11-13T20:30:31.081Z,5.17
2017-11-13T20:32:58.624Z,5.57
2017-11-13T20:35:26.154Z,4.10
2017-11-13T20:37:54.174Z,5.60
2017-11-13T20:40:22.088Z,5.30
2017-11-13T20:42:49.672Z,4.40
2017-11-13T20:45:18.437Z,3.90
2017-11-13T20:47:46.424Z,4.40
2017-11-13T20:50:14.027Z,5.47
2017-11-13T20:52:42.366Z,5.20
2017-11-13T20:55:09.883Z,7.90
2017-11-13T20:57:37.466Z,6.80
2017-11-13T21:00:05.023Z,5.23
2017-11-13T21:02:32.590Z,4.70
2017-11-13T21:05:00.917Z,5.13
2017-11-13T21:07:29.271Z,6.20
2017-11-13T21:09:56.777Z,6.40
2017-11-13T21:12:24.310Z,7.97
2017-11-13T21:14:51.861Z,6.50
2017-11-13T21:17:19.365Z,5.83
2017-11-13T21:19:46.898Z,5.10
2017-11-13T21:22:15.190Z,5.30
2017-11-13T21:24:42.722Z,4.27
2017-11-13T21:27:10.232Z,4.83
2017-11-13T21:29:37.782Z,5.50
2017-11-13T21:32:05.324Z,5.10
2017-11-13T21:34:33.630Z,7.30
2017-11-13T21:37:01.142Z,6.37
2017-11-13T21:39:28.649Z,5.03
2017-11-13T21:41:56.183Z,5.50
2017-11-13T21:44:23.788Z,4.93
2017-11-13T21:46:51.403Z,5.13
2017-11-13T21:49:19.884Z,5.97
2017-11-13T21:51:47.446Z,5.40
2017-11-13T21:54:15.021Z,5.10
2017-11-13T21:56:42.577Z,4.50
2017-11-13T21:59:10.190Z,4.73
2017-11-13T22:01:37.755Z,4.97
2017-11-13T22:04:05.265Z,4.33
2017-11-13T22:06:33.302Z,3.93
2017-11-13T22:09:01.098Z,4.77
2017-11-13T22:11:28.816Z,4.50
2017-11-13T22:13:56.427Z,4.20
2017-11-13T22:16:24.387Z,3.87
2017-11-13T22:18:52.168Z,3.73
2017-11-13T22:21:20.185Z,4.13
2017-11-13T22:23:47.946Z,4.83
2017-11-13T22:26:15.502Z,4.57
2017-11-13T22:28:43.004Z,3.90
2017-11-13T22:31:10.514Z,5.97
2017-11-13T22:33:38.051Z,5.40
2017-11-13T22:36:05.578Z,4.10
2017-11-13T22:38:33.096Z,4.55
2017-11-13T22:41:00.646Z,4.77
2017-11-13T22:43:28.183Z,5.50
2017-11-13T22:45:55.722Z,6.07
2017-11-13T22:48:23.250Z,5.53
2017-11-13T22:50:50.769Z,5.20
2017-11-13T22:53:18.320Z,5.72
2017-11-13T22:55:45.830Z,4.50
2017-11-13T22:58:13.333Z,5.00
2017-11-13T23:00:40.877Z,5.65
2017-11-13T23:03:08.391Z,4.65
2017-11-13T23:05:35.911Z,5.50
2017-11-13T23:08:03.456Z,4.32
2017-11-13T23:10:30.969Z,4.35
2017-11-13T23:12:58.495Z,4.93
2017-11-13T23:15:26.039Z,5.40
2017-11-13T23:17:53.549Z,4.80
2017-11-13T23:20:21.050Z,5.28
2017-11-13T23:22:49.354Z,4.97
2017-11-13T23:25:16.856Z,5.07
2017-11-13T23:27:44.375Z,4.32
2017-11-13T23:30:11.913Z,4.50
2017-11-13T23:32:39.419Z,4.43
2017-11-13T23:35:06.920Z,4.10
2017-11-13T23:37:34.461Z,4.85
2017-11-13T23:40:01.977Z,4.93
2017-11-13T23:42:29.630Z,4.40
2017-11-13T23:44:57.145Z,4.30
2017-11-13T23:47:24.651Z,5.35
2017-11-13T23:49:52.193Z,5.05
2017-11-13T23:52:19.710Z,4.12
2017-11-13T23:54:47.230Z,5.40
2017-11-13T23:57:20.315Z,5.68
2017-11-13T23:59:53.239Z,5.62
